sensor_id;sensor_type;location;lat;lon;timestamp;pressure;altitude;pressure_sealevel;temperature;humidity
9764;BME280;4921;43.214;27.936;2022-12-18T00:02:19;101680.84;;;14.61;100.00
9764;BME280;4921;43.214;27.936;2022-12-18T00:04:47;101682.53;;;14.62;100.00
9764;BME280;4921;43.214;27.936;2022-12-18T00:07:14;101673.25;;;14.56;100.00
9764;BME280;4921;43.214;27.936;2022-12-18T00:09:41;101687.47;;;14.55;100.00
9764;BME280;4921;43.214;27.936;2022-12-18T00:12:08;101699.13;;;14.41;100.00
9764;BME280;4921;43.214;27.936;2022-12-18T00:14:36;101685.78;;;14.43;100.00
9764;BME280;4921;43.214;27.936;2022-12-18T00:17:03;101702.50;;;14.55;100.00
9764;BME280;4921;43.214;27.936;2022-12-18T00:19:30;101691.91;;;14.55;100.00
9764;BME280;4921;43.214;27.936;2022-12-18T00:21:57;101700.22;;;14.50;100.00
9764;BME280;4921;43.214;27.936;2022-12-18T00:24:24;101711.88;;;14.47;100.00
9764;BME280;4921;43.214;27.936;2022-12-18T00:26:51;101704.06;;;14.46;100.00
9764;BME280;4921;43.214;27.936;2022-12-18T00:29:18;101712.50;;;14.51;100.00
9764;BME280;4921;43.214;27.936;2022-12-18T00:31:46;101704.78;;;14.48;100.00
9764;BME280;4921;43.214;27.936;2022-12-18T00:34:13;101729.34;;;14.50;100.00
9764;BME280;4921;43.214;27.936;2022-12-18T00:36:40;101726.31;;;14.43;100.00
9764;BME280;4921;43.214;27.936;2022-12-18T00:39:09;101736.91;;;14.32;100.00
9764;BME280;4921;43.214;27.936;2022-12-18T00:41:36;101742.56;;;14.39;100.00
9764;BME280;4921;43.214;27.936;2022-12-18T00:44:20;101739.66;;;14.31;100.00
9764;BME280;4921;43.214;27.936;2022-12-18T00:46:49;101728.56;;;14.26;100.00
9764;BME280;4921;43.214;27.936;2022-12-18T00:49:16;101736.63;;;14.24;100.00
9764;BME280;4921;43.214;27.936;2022-12-18T00:51:44;101744.84;;;14.32;100.00
9764;BME280;4921;43.214;27.936;2022-12-18T00:54:11;101744.25;;;14.29;100.00
9764;BME280;4921;43.214;27.936;2022-12-18T00:56:38;101737.47;;;14.25;100.00
9764;BME280;4921;43.214;27.936;2022-12-18T00:59:06;101740.34;;;14.22;100.00
9764;BME280;4921;43.214;27.936;2022-12-18T01:01:33;101753.84;;;14.30;100.00
9764;BME280;4921;43.214;27.936;2022-12-18T01:04:03;101737.19;;;14.06;100.00
9764;BME280;4921;43.214;27.936;2022-12-18T01:06:30;101760.41;;;14.13;100.00
9764;BME280;4921;43.214;27.936;2022-12-18T01:08:57;101769.41;;;14.11;100.00
9764;BME280;4921;43.214;27.936;2022-12-18T01:11:24;101768.94;;;14.06;100.00
9764;BME280;4921;43.214;27.936;2022-12-18T01:13:52;101765.28;;;13.96;100.00
9764;BME280;4921;43.214;27.936;2022-12-18T01:16:20;101779.00;;;14.01;100.00
9764;BME280;4921;43.214;27.936;2022-12-18T01:18:50;101764.69;;;13.92;100.00
9764;BME280;4921;43.214;27.936;2022-12-18T01:21:18;101775.13;;;13.94;100.00
9764;BME280;4921;43.214;27.936;2022-12-18T01:23:45;101784.25;;;13.90;100.00
9764;BME280;4921;43.214;27.936;2022-12-18T01:26:14;101790.53;;;13.89;100.00
9764;BME280;4921;43.214;27.936;2022-12-18T01:28:42;101788.22;;;13.84;100.00
9764;BME280;4921;43.214;27.936;2022-12-18T01:31:14;101783.38;;;13.78;100.00
9764;BME280;4921;43.214;27.936;2022-12-18T01:33:42;101778.84;;;13.80;100.00
9764;BME280;4921;43.214;27.936;2022-12-18T01:36:15;101779.31;;;13.85;100.00
9764;BME280;4921;43.214;27.936;2022-12-18T01:38:44;101779.50;;;13.71;100.00
9764;BME280;4921;43.214;27.936;2022-12-18T01:41:11;101781.09;;;13.73;100.00
9764;BME280;4921;43.214;27.936;2022-12-18T01:43:47;101787.09;;;13.75;100.00
9764;BME280;4921;43.214;27.936;2022-12-18T01:46:14;101787.84;;;13.77;100.00
9764;BME280;4921;43.214;27.936;2022-12-18T01:48:42;101788.16;;;13.73;100.00
9764;BME280;4921;43.214;27.936;2022-12-18T01:51:11;101802.25;;;13.73;100.00
9764;BME280;4921;43.214;27.936;2022-12-18T01:53:40;101804.50;;;13.78;100.00
9764;BME280;4921;43.214;27.936;2022-12-18T01:56:12;101811.84;;;13.74;100.00
9764;BME280;4921;43.214;27.936;2022-12-18T01:58:46;101814.94;;;13.68;100.00
9764;BME280;4921;43.214;27.936;2022-12-18T02:01:15;101809.13;;;13.63;100.00
9764;BME280;4921;43.214;27.936;2022-12-18T02:03:43;101812.28;;;13.68;100.00
9764;BME280;4921;43.214;27.936;2022-12-18T02:06:16;101805.94;;;13.71;100.00
9764;BME280;4921;43.214;27.936;2022-12-18T02:08:49;101777.53;;;13.62;100.00
9764;BME280;4921;43.214;27.936;2022-12-18T02:11:26;101791.16;;;13.68;100.00
9764;BME280;4921;43.214;27.936;2022-12-18T02:14:03;101804.09;;;13.60;100.00
9764;BME280;4921;43.214;27.936;2022-12-18T02:16:39;101809.91;;;13.53;100.00
9764;BME280;4921;43.214;27.936;2022-12-18T02:19:19;101809.91;;;13.53;100.00
9764;BME280;4921;43.214;27.936;2022-12-18T02:21:54;101803.69;;;13.54;100.00
9764;BME280;4921;43.214;27.936;2022-12-18T02:24:31;101806.00;;;13.58;100.00
9764;BME280;4921;43.214;27.936;2022-12-18T02:27:04;101804.63;;;13.53;100.00
9764;BME280;4921;43.214;27.936;2022-12-18T02:29:35;101800.31;;;13.52;100.00
9764;BME280;4921;43.214;27.936;2022-12-18T02:32:06;101812.34;;;13.56;100.00
9764;BME280;4921;43.214;27.936;2022-12-18T02:34:38;101834.22;;;13.58;100.00
9764;BME280;4921;43.214;27.936;2022-12-18T02:37:07;101843.22;;;13.55;100.00
9764;BME280;4921;43.214;27.936;2022-12-18T02:39:38;101841.97;;;13.48;100.00
9764;BME280;4921;43.214;27.936;2022-12-18T02:42:07;101839.16;;;13.39;100.00
9764;BME280;4921;43.214;27.936;2022-12-18T02:44:35;101836.53;;;13.39;100.00
9764;BME280;4921;43.214;27.936;2022-12-18T02:47:10;101855.91;;;13.50;100.00
9764;BME280;4921;43.214;27.936;2022-12-18T02:49:44;101848.84;;;13.51;100.00
9764;BME280;4921;43.214;27.936;2022-12-18T02:52:21;101859.94;;;13.56;100.00
9764;BME280;4921;43.214;27.936;2022-12-18T02:54:59;101886.13;;;13.59;100.00
9764;BME280;4921;43.214;27.936;2022-12-18T02:57:34;101871.31;;;13.56;100.00
9764;BME280;4921;43.214;27.936;2022-12-18T03:00:07;101873.75;;;13.59;100.00
9764;BME280;4921;43.214;27.936;2022-12-18T03:02:38;101862.91;;;13.51;100.00
9764;BME280;4921;43.214;27.936;2022-12-18T03:05:12;101854.66;;;13.56;100.00
9764;BME280;4921;43.214;27.936;2022-12-18T03:07:44;101863.72;;;13.64;100.00
9764;BME280;4921;43.214;27.936;2022-12-18T03:10:17;101871.56;;;13.53;100.00
9764;BME280;4921;43.214;27.936;2022-12-18T03:12:52;101866.41;;;13.52;100.00
9764;BME280;4921;43.214;27.936;2022-12-18T03:15:23;101867.94;;;13.54;100.00
9764;BME280;4921;43.214;27.936;2022-12-18T03:17:56;101864.69;;;13.51;100.00
9764;BME280;4921;43.214;27.936;2022-12-18T03:20:25;101857.97;;;13.34;100.00
9764;BME280;4921;43.214;27.936;2022-12-18T03:23:02;101847.97;;;13.14;100.00
9764;BME280;4921;43.214;27.936;2022-12-18T03:25:31;101867.28;;;13.27;100.00
9764;BME280;4921;43.214;27.936;2022-12-18T03:28:02;101862.66;;;13.18;100.00
9764;BME280;4921;43.214;27.936;2022-12-18T03:30:31;101864.34;;;13.19;100.00
9764;BME280;4921;43.214;27.936;2022-12-18T03:33:06;101870.50;;;13.20;100.00
9764;BME280;4921;43.214;27.936;2022-12-18T03:35:36;101863.50;;;13.19;100.00
9764;BME280;4921;43.214;27.936;2022-12-18T03:38:04;101875.44;;;13.12;100.00
9764;BME280;4921;43.214;27.936;2022-12-18T03:40:38;101872.91;;;13.10;100.00
9764;BME280;4921;43.214;27.936;2022-12-18T03:43:14;101876.28;;;12.99;100.00
9764;BME280;4921;43.214;27.936;2022-12-18T03:45:48;101887.69;;;13.00;100.00
9764;BME280;4921;43.214;27.936;2022-12-18T03:48:19;101908.91;;;12.98;100.00
9764;BME280;4921;43.214;27.936;2022-12-18T03:50:56;101887.69;;;13.00;100.00
9764;BME280;4921;43.214;27.936;2022-12-18T03:53:28;101894.75;;;12.99;100.00
9764;BME280;4921;43.214;27.936;2022-12-18T03:55:58;101902.38;;;13.04;100.00
9764;BME280;4921;43.214;27.936;2022-12-18T03:58:29;101890.22;;;13.01;100.00
9764;BME280;4921;43.214;27.936;2022-12-18T04:01:01;101921.31;;;13.11;100.00
9764;BME280;4921;43.214;27.936;2022-12-18T04:03:31;101932.94;;;13.08;100.00
9764;BME280;4921;43.214;27.936;2022-12-18T04:05:59;101927.50;;;12.97;100.00
9764;BME280;4921;43.214;27.936;2022-12-18T04:08:27;101966.41;;;13.08;100.00
9764;BME280;4921;43.214;27.936;2022-12-18T04:10:55;101970.00;;;13.07;100.00
9764;BME280;4921;43.214;27.936;2022-12-18T04:13:23;101976.84;;;13.09;100.00
9764;BME280;4921;43.214;27.936;2022-12-18T04:15:52;101953.34;;;12.79;100.00
9764;BME280;4921;43.214;27.936;2022-12-18T04:18:18;101985.78;;;12.94;100.00
9764;BME280;4921;43.214;27.936;2022-12-18T04:20:45;101992.03;;;12.93;100.00
9764;BME280;4921;43.214;27.936;2022-12-18T04:23:12;102001.31;;;12.98;100.00
9764;BME280;4921;43.214;27.936;2022-12-18T04:25:39;102012.03;;;13.10;100.00
9764;BME280;4921;43.214;27.936;2022-12-18T04:28:06;102013.22;;;13.18;100.00
9764;BME280;4921;43.214;27.936;2022-12-18T04:30:33;102011.84;;;13.13;100.00
9764;BME280;4921;43.214;27.936;2022-12-18T04:33:02;102015.75;;;13.07;100.00
9764;BME280;4921;43.214;27.936;2022-12-18T04:35:29;102026.06;;;12.97;100.00
9764;BME280;4921;43.214;27.936;2022-12-18T04:37:56;102029.63;;;12.96;100.00
9764;BME280;4921;43.214;27.936;2022-12-18T04:40:23;102030.78;;;12.92;100.00
9764;BME280;4921;43.214;27.936;2022-12-18T04:42:50;102042.41;;;12.90;100.00
9764;BME280;4921;43.214;27.936;2022-12-18T04:45:17;102029.53;;;12.59;100.00
9764;BME280;4921;43.214;27.936;2022-12-18T04:47:44;102052.69;;;12.68;100.00
9764;BME280;4921;43.214;27.936;2022-12-18T04:50:12;102064.19;;;12.67;100.00
9764;BME280;4921;43.214;27.936;2022-12-18T04:52:39;102039.94;;;12.48;100.00
9764;BME280;4921;43.214;27.936;2022-12-18T04:55:06;102046.53;;;12.55;100.00
9764;BME280;4921;43.214;27.936;2022-12-18T04:57:33;102060.16;;;12.35;100.00
9764;BME280;4921;43.214;27.936;2022-12-18T05:00:00;102076.25;;;12.30;100.00
9764;BME280;4921;43.214;27.936;2022-12-18T05:02:27;102091.25;;;12.30;100.00
9764;BME280;4921;43.214;27.936;2022-12-18T05:04:54;102090.03;;;12.35;100.00
9764;BME280;4921;43.214;27.936;2022-12-18T05:07:22;102091.41;;;12.41;100.00
9764;BME280;4921;43.214;27.936;2022-12-18T05:09:49;102100.19;;;12.41;100.00
9764;BME280;4921;43.214;27.936;2022-12-18T05:12:16;102101.59;;;12.33;100.00
9764;BME280;4921;43.214;27.936;2022-12-18T05:14:42;102110.91;;;12.38;100.00
9764;BME280;4921;43.214;27.936;2022-12-18T05:17:09;102093.41;;;12.23;100.00
9764;BME280;4921;43.214;27.936;2022-12-18T05:19:36;102113.00;;;12.19;100.00
9764;BME280;4921;43.214;27.936;2022-12-18T05:22:06;102123.00;;;12.00;100.00
9764;BME280;4921;43.214;27.936;2022-12-18T05:24:37;102123.88;;;12.00;100.00
9764;BME280;4921;43.214;27.936;2022-12-18T05:27:04;102138.94;;;11.98;100.00
9764;BME280;4921;43.214;27.936;2022-12-18T05:29:31;102141.19;;;12.04;100.00
9764;BME280;4921;43.214;27.936;2022-12-18T05:31:58;102154.47;;;12.03;100.00
9764;BME280;4921;43.214;27.936;2022-12-18T05:34:25;102159.66;;;11.90;100.00
9764;BME280;4921;43.214;27.936;2022-12-18T05:36:52;102156.31;;;11.73;100.00
9764;BME280;4921;43.214;27.936;2022-12-18T05:39:18;102169.50;;;11.73;100.00
9764;BME280;4921;43.214;27.936;2022-12-18T05:41:47;102174.50;;;11.77;100.00
9764;BME280;4921;43.214;27.936;2022-12-18T05:44:14;102190.91;;;11.67;100.00
9764;BME280;4921;43.214;27.936;2022-12-18T05:46:41;102177.91;;;11.64;100.00
9764;BME280;4921;43.214;27.936;2022-12-18T05:49:07;102195.78;;;11.59;100.00
9764;BME280;4921;43.214;27.936;2022-12-18T05:51:34;102182.81;;;11.40;100.00
9764;BME280;4921;43.214;27.936;2022-12-18T05:54:01;102194.13;;;11.42;100.00
9764;BME280;4921;43.214;27.936;2022-12-18T05:56:28;102217.34;;;11.35;100.00
9764;BME280;4921;43.214;27.936;2022-12-18T05:58:56;102221.38;;;11.41;100.00
9764;BME280;4921;43.214;27.936;2022-12-18T06:01:25;102225.84;;;11.40;100.00
9764;BME280;4921;43.214;27.936;2022-12-18T06:03:52;102232.78;;;11.41;100.00
9764;BME280;4921;43.214;27.936;2022-12-18T06:06:21;102236.03;;;11.31;100.00
9764;BME280;4921;43.214;27.936;2022-12-18T06:08:48;102247.44;;;11.16;100.00
9764;BME280;4921;43.214;27.936;2022-12-18T06:11:17;102258.03;;;10.99;100.00
9764;BME280;4921;43.214;27.936;2022-12-18T06:13:45;102267.81;;;10.97;100.00
9764;BME280;4921;43.214;27.936;2022-12-18T06:16:13;102277.13;;;11.02;100.00
9764;BME280;4921;43.214;27.936;2022-12-18T06:18:40;102286.38;;;10.94;100.00
9764;BME280;4921;43.214;27.936;2022-12-18T06:21:07;102302.31;;;11.08;100.00
9764;BME280;4921;43.214;27.936;2022-12-18T06:23:34;102306.19;;;11.01;100.00
9764;BME280;4921;43.214;27.936;2022-12-18T06:26:04;102314.00;;;11.02;100.00
9764;BME280;4921;43.214;27.936;2022-12-18T06:28:32;102327.59;;;10.95;100.00
9764;BME280;4921;43.214;27.936;2022-12-18T06:30:59;102321.47;;;10.94;100.00
9764;BME280;4921;43.214;27.936;2022-12-18T06:33:27;102337.94;;;10.98;100.00
9764;BME280;4921;43.214;27.936;2022-12-18T06:35:54;102345.72;;;10.84;100.00
9764;BME280;4921;43.214;27.936;2022-12-18T06:38:26;102368.25;;;10.72;100.00
9764;BME280;4921;43.214;27.936;2022-12-18T06:40:53;102371.53;;;10.77;100.00
9764;BME280;4921;43.214;27.936;2022-12-18T06:43:20;102372.31;;;10.62;100.00
9764;BME280;4921;43.214;27.936;2022-12-18T06:45:47;102369.44;;;10.66;100.00
9764;BME280;4921;43.214;27.936;2022-12-18T06:48:18;102377.00;;;10.72;100.00
9764;BME280;4921;43.214;27.936;2022-12-18T06:50:46;102357.53;;;10.59;100.00
9764;BME280;4921;43.214;27.936;2022-12-18T06:53:13;102374.63;;;10.51;100.00
9764;BME280;4921;43.214;27.936;2022-12-18T06:55:41;102362.66;;;10.45;100.00
9764;BME280;4921;43.214;27.936;2022-12-18T06:58:07;102369.22;;;10.54;100.00
9764;BME280;4921;43.214;27.936;2022-12-18T07:00:35;102375.94;;;10.59;100.00
9764;BME280;4921;43.214;27.936;2022-12-18T07:03:02;102356.25;;;10.34;100.00
9764;BME280;4921;43.214;27.936;2022-12-18T07:05:29;102385.88;;;10.54;100.00
9764;BME280;4921;43.214;27.936;2022-12-18T07:07:57;102390.09;;;10.57;100.00
9764;BME280;4921;43.214;27.936;2022-12-18T07:10:25;102390.34;;;10.52;100.00
9764;BME280;4921;43.214;27.936;2022-12-18T07:12:52;102393.69;;;10.39;100.00
9764;BME280;4921;43.214;27.936;2022-12-18T07:15:19;102397.94;;;10.41;100.00
9764;BME280;4921;43.214;27.936;2022-12-18T07:17:45;102392.13;;;10.52;100.00
9764;BME280;4921;43.214;27.936;2022-12-18T07:20:12;102400.81;;;10.54;100.00
9764;BME280;4921;43.214;27.936;2022-12-18T07:22:39;102407.16;;;10.67;100.00
9764;BME280;4921;43.214;27.936;2022-12-18T07:25:08;102424.25;;;10.58;100.00
9764;BME280;4921;43.214;27.936;2022-12-18T07:27:35;102419.03;;;10.57;100.00
9764;BME280;4921;43.214;27.936;2022-12-18T07:30:03;102428.56;;;10.59;100.00
9764;BME280;4921;43.214;27.936;2022-12-18T07:32:30;102429.50;;;10.58;100.00
9764;BME280;4921;43.214;27.936;2022-12-18T07:34:57;102434.28;;;10.50;100.00
9764;BME280;4921;43.214;27.936;2022-12-18T07:37:24;102433.69;;;10.45;100.00
9764;BME280;4921;43.214;27.936;2022-12-18T07:39:51;102439.00;;;10.44;100.00
9764;BME280;4921;43.214;27.936;2022-12-18T07:42:19;102432.19;;;10.40;100.00
9764;BME280;4921;43.214;27.936;2022-12-18T07:44:58;102430.66;;;10.36;100.00
9764;BME280;4921;43.214;27.936;2022-12-18T07:47:26;102431.38;;;10.39;100.00
9764;BME280;4921;43.214;27.936;2022-12-18T07:49:53;102430.81;;;10.50;100.00
9764;BME280;4921;43.214;27.936;2022-12-18T07:52:20;102432.19;;;10.57;100.00
9764;BME280;4921;43.214;27.936;2022-12-18T07:54:47;102439.84;;;10.44;100.00
9764;BME280;4921;43.214;27.936;2022-12-18T07:57:15;102436.91;;;10.33;100.00
9764;BME280;4921;43.214;27.936;2022-12-18T07:59:44;102455.16;;;10.36;100.00
9764;BME280;4921;43.214;27.936;2022-12-18T08:02:11;102449.91;;;10.36;100.00
9764;BME280;4921;43.214;27.936;2022-12-18T08:04:37;102453.00;;;10.44;100.00
9764;BME280;4921;43.214;27.936;2022-12-18T08:07:04;102452.53;;;10.36;100.00
9764;BME280;4921;43.214;27.936;2022-12-18T08:09:31;102458.03;;;10.32;100.00
9764;BME280;4921;43.214;27.936;2022-12-18T08:11:58;102456.34;;;10.31;100.00
9764;BME280;4921;43.214;27.936;2022-12-18T08:14:25;102458.69;;;10.54;100.00
9764;BME280;4921;43.214;27.936;2022-12-18T08:16:54;102462.44;;;10.48;100.00
9764;BME280;4921;43.214;27.936;2022-12-18T08:19:21;102462.41;;;10.50;100.00
9764;BME280;4921;43.214;27.936;2022-12-18T08:21:47;102461.91;;;10.59;100.00
9764;BME280;4921;43.214;27.936;2022-12-18T08:24:14;102461.13;;;10.57;100.00
9764;BME280;4921;43.214;27.936;2022-12-18T08:26:41;102446.06;;;10.60;100.00
9764;BME280;4921;43.214;27.936;2022-12-18T08:29:09;102460.59;;;10.67;100.00
9764;BME280;4921;43.214;27.936;2022-12-18T08:31:36;102465.03;;;10.67;100.00
9764;BME280;4921;43.214;27.936;2022-12-18T08:34:04;102464.09;;;10.68;100.00
9764;BME280;4921;43.214;27.936;2022-12-18T08:36:31;102462.53;;;10.64;100.00
9764;BME280;4921;43.214;27.936;2022-12-18T08:38:58;102459.13;;;10.62;100.00
9764;BME280;4921;43.214;27.936;2022-12-18T08:41:25;102455.09;;;10.72;100.00
9764;BME280;4921;43.214;27.936;2022-12-18T08:43:52;102445.06;;;10.63;100.00
9764;BME280;4921;43.214;27.936;2022-12-18T08:46:38;102450.16;;;10.66;100.00
9764;BME280;4921;43.214;27.936;2022-12-18T08:49:08;102460.91;;;10.61;100.00
9764;BME280;4921;43.214;27.936;2022-12-18T08:51:35;102464.16;;;10.66;100.00
9764;BME280;4921;43.214;27.936;2022-12-18T08:54:03;102460.31;;;10.56;100.00
9764;BME280;4921;43.214;27.936;2022-12-18T08:56:30;102461.63;;;10.48;100.00
9764;BME280;4921;43.214;27.936;2022-12-18T08:58:57;102456.34;;;10.48;100.00
9764;BME280;4921;43.214;27.936;2022-12-18T09:01:24;102458.34;;;10.43;100.00
9764;BME280;4921;43.214;27.936;2022-12-18T09:03:51;102445.66;;;10.34;100.00
9764;BME280;4921;43.214;27.936;2022-12-18T09:06:21;102460.69;;;10.49;100.00
9764;BME280;4921;43.214;27.936;2022-12-18T09:08:48;102452.88;;;10.47;100.00
9764;BME280;4921;43.214;27.936;2022-12-18T09:11:19;102462.75;;;10.42;100.00
9764;BME280;4921;43.214;27.936;2022-12-18T09:13:47;102459.56;;;10.36;100.00
9764;BME280;4921;43.214;27.936;2022-12-18T09:16:14;102445.66;;;10.34;100.00
9764;BME280;4921;43.214;27.936;2022-12-18T09:18:41;102421.28;;;10.30;100.00
9764;BME280;4921;43.214;27.936;2022-12-18T09:21:09;102450.81;;;10.35;100.00
9764;BME280;4921;43.214;27.936;2022-12-18T09:23:38;102456.34;;;10.31;100.00
9764;BME280;4921;43.214;27.936;2022-12-18T09:26:05;102458.34;;;10.43;100.00
9764;BME280;4921;43.214;27.936;2022-12-18T09:28:32;102459.75;;;10.50;100.00
9764;BME280;4921;43.214;27.936;2022-12-18T09:30:59;102453.56;;;10.51;100.00
9764;BME280;4921;43.214;27.936;2022-12-18T09:33:30;102452.91;;;10.46;100.00
9764;BME280;4921;43.214;27.936;2022-12-18T09:35:57;102461.06;;;10.41;100.00
9764;BME280;4921;43.214;27.936;2022-12-18T09:38:23;102460.97;;;10.43;100.00
9764;BME280;4921;43.214;27.936;2022-12-18T09:40:53;102460.44;;;10.53;100.00
9764;BME280;4921;43.214;27.936;2022-12-18T09:43:25;102460.13;;;10.59;100.00
9764;BME280;4921;43.214;27.936;2022-12-18T09:45:57;102448.16;;;10.54;100.00
9764;BME280;4921;43.214;27.936;2022-12-18T09:48:28;102473.47;;;10.56;100.00
9764;BME280;4921;43.214;27.936;2022-12-18T09:51:00;102460.13;;;10.59;100.00
9764;BME280;4921;43.214;27.936;2022-12-18T09:53:33;102452.47;;;10.55;100.00
9764;BME280;4921;43.214;27.936;2022-12-18T09:56:04;102450.25;;;10.64;100.00
9764;BME280;4921;43.214;27.936;2022-12-18T09:58:36;102444.03;;;10.65;100.00
9764;BME280;4921;43.214;27.936;2022-12-18T10:01:25;102448.94;;;10.56;100.00
9764;BME280;4921;43.214;27.936;2022-12-18T10:03:53;102447.97;;;10.57;100.00
9764;BME280;4921;43.214;27.936;2022-12-18T10:06:24;102451.66;;;10.54;100.00
9764;BME280;4921;43.214;27.936;2022-12-18T10:08:58;102449.06;;;10.70;100.00
9764;BME280;4921;43.214;27.936;2022-12-18T10:11:37;102417.91;;;10.45;100.00
9764;BME280;4921;43.214;27.936;2022-12-18T10:14:11;102451.16;;;10.81;100.00
9764;BME280;4921;43.214;27.936;2022-12-18T10:16:50;102435.84;;;10.71;100.00
9764;BME280;4921;43.214;27.936;2022-12-18T10:19:29;102443.03;;;10.68;100.00
9764;BME280;4921;43.214;27.936;2022-12-18T10:22:02;102406.22;;;10.51;100.00
9764;BME280;4921;43.214;27.936;2022-12-18T10:24:39;102433.81;;;10.77;100.00
9764;BME280;4921;43.214;27.936;2022-12-18T10:27:14;102448.28;;;10.85;100.00
9764;BME280;4921;43.214;27.936;2022-12-18T10:29:42;102443.88;;;10.86;100.00
9764;BME280;4921;43.214;27.936;2022-12-18T10:32:14;102457.44;;;10.95;100.00
9764;BME280;4921;43.214;27.936;2022-12-18T10:34:45;102446.81;;;10.97;100.00
9764;BME280;4921;43.214;27.936;2022-12-18T10:37:16;102454.84;;;10.94;100.00
9764;BME280;4921;43.214;27.936;2022-12-18T10:39:44;102455.63;;;10.96;100.00
9764;BME280;4921;43.214;27.936;2022-12-18T10:42:17;102470.75;;;10.92;100.00
9764;BME280;4921;43.214;27.936;2022-12-18T10:44:44;102456.47;;;10.96;100.00
9764;BME280;4921;43.214;27.936;2022-12-18T10:47:15;102467.72;;;11.00;100.00
9764;BME280;4921;43.214;27.936;2022-12-18T10:49:48;102467.06;;;11.12;100.00
9764;BME280;4921;43.214;27.936;2022-12-18T10:52:18;102480.63;;;11.04;100.00
9764;BME280;4921;43.214;27.936;2022-12-18T10:54:48;102476.50;;;11.16;100.00
9764;BME280;4921;43.214;27.936;2022-12-18T10:57:29;102477.28;;;11.18;100.00
9764;BME280;4921;43.214;27.936;2022-12-18T10:59:58;102485.72;;;11.24;100.00
9764;BME280;4921;43.214;27.936;2022-12-18T11:02:28;102457.56;;;11.09;100.00
9764;BME280;4921;43.214;27.936;2022-12-18T11:04:57;102479.19;;;11.31;100.00
9764;BME280;4921;43.214;27.936;2022-12-18T11:07:25;102465.06;;;11.17;100.00
9764;BME280;4921;43.214;27.936;2022-12-18T11:10:00;102488.97;;;11.29;100.00
9764;BME280;4921;43.214;27.936;2022-12-18T11:12:31;102496.53;;;11.35;100.00
9764;BME280;4921;43.214;27.936;2022-12-18T11:14:58;102496.53;;;11.35;100.00
9764;BME280;4921;43.214;27.936;2022-12-18T11:17:30;102506.06;;;11.38;100.00
9764;BME280;4921;43.214;27.936;2022-12-18T11:19:59;102508.47;;;11.42;100.00
9764;BME280;4921;43.214;27.936;2022-12-18T11:22:28;102505.00;;;11.25;100.00
9764;BME280;4921;43.214;27.936;2022-12-18T11:24:57;102506.16;;;11.19;100.00
9764;BME280;4921;43.214;27.936;2022-12-18T11:27:26;102511.75;;;11.13;100.00
9764;BME280;4921;43.214;27.936;2022-12-18T11:30:08;102503.31;;;11.07;100.00
9764;BME280;4921;43.214;27.936;2022-12-18T11:32:37;102515.25;;;10.97;100.00
9764;BME280;4921;43.214;27.936;2022-12-18T11:35:14;102511.69;;;10.98;100.00
9764;BME280;4921;43.214;27.936;2022-12-18T11:37:47;102512.94;;;11.08;100.00
9764;BME280;4921;43.214;27.936;2022-12-18T11:40:18;102505.34;;;11.02;100.00
9764;BME280;4921;43.214;27.936;2022-12-18T11:42:51;102522.28;;;10.96;100.00
9764;BME280;4921;43.214;27.936;2022-12-18T11:45:31;102513.94;;;10.88;100.00
9764;BME280;4921;43.214;27.936;2022-12-18T11:48:04;102526.94;;;10.91;100.00
9764;BME280;4921;43.214;27.936;2022-12-18T11:50:41;102523.47;;;10.91;100.00
9764;BME280;4921;43.214;27.936;2022-12-18T11:53:12;102504.97;;;10.92;100.00
9764;BME280;4921;43.214;27.936;2022-12-18T11:55:43;102504.09;;;10.92;100.00
9764;BME280;4921;43.214;27.936;2022-12-18T11:58:20;102481.34;;;10.73;100.00
9764;BME280;4921;43.214;27.936;2022-12-18T12:01:02;102498.75;;;10.76;100.00
9764;BME280;4921;43.214;27.936;2022-12-18T12:03:45;102495.13;;;10.61;100.00
9764;BME280;4921;43.214;27.936;2022-12-18T12:06:22;102499.84;;;10.72;100.00
9764;BME280;4921;43.214;27.936;2022-12-18T12:09:00;102509.66;;;10.68;100.00
9764;BME280;4921;43.214;27.936;2022-12-18T12:11:35;102527.63;;;10.60;100.00
9764;BME280;4921;43.214;27.936;2022-12-18T12:14:24;102528.94;;;10.52;100.00
9764;BME280;4921;43.214;27.936;2022-12-18T12:17:03;102539.38;;;10.53;100.00
9764;BME280;4921;43.214;27.936;2022-12-18T12:19:42;102541.38;;;10.65;100.00
9764;BME280;4921;43.214;27.936;2022-12-18T12:22:18;102552.84;;;10.64;100.00
9764;BME280;4921;43.214;27.936;2022-12-18T12:24:59;102560.66;;;10.66;100.00
9764;BME280;4921;43.214;27.936;2022-12-18T12:27:36;102569.28;;;10.69;100.00
9764;BME280;4921;43.214;27.936;2022-12-18T12:30:08;102567.16;;;10.76;100.00
9764;BME280;4921;43.214;27.936;2022-12-18T12:32:49;102566.78;;;10.66;100.00
9764;BME280;4921;43.214;27.936;2022-12-18T12:35:29;102569.28;;;10.69;100.00
9764;BME280;4921;43.214;27.936;2022-12-18T12:38:08;102577.66;;;10.78;100.00
9764;BME280;4921;43.214;27.936;2022-12-18T12:40:40;102567.22;;;10.57;100.00
9764;BME280;4921;43.214;27.936;2022-12-18T12:43:27;102576.63;;;10.63;100.00
9764;BME280;4921;43.214;27.936;2022-12-18T12:45:57;102567.91;;;10.61;100.00
9764;BME280;4921;43.214;27.936;2022-12-18T12:48:35;102578.38;;;10.62;100.00
9764;BME280;4921;43.214;27.936;2022-12-18T12:51:12;102579.75;;;10.52;100.00
9764;BME280;4921;43.214;27.936;2022-12-18T12:53:40;102599.78;;;10.55;100.00
9764;BME280;4921;43.214;27.936;2022-12-18T12:56:10;102604.91;;;10.58;100.00
9764;BME280;4921;43.214;27.936;2022-12-18T12:58:44;102611.59;;;10.65;100.00
9764;BME280;4921;43.214;27.936;2022-12-18T13:01:17;102607.47;;;10.59;100.00
9764;BME280;4921;43.214;27.936;2022-12-18T13:03:56;102616.88;;;10.65;100.00
9764;BME280;4921;43.214;27.936;2022-12-18T13:09:17;102621.13;;;10.49;100.00